NCAR-RAP Real-Time Weather Data

Output produced by METARs form (17 September 2019  17:02 UTC)
found at http://weather.rap.ucar.edu/surface/
 
KBGR 171653Z 36011KT 10SM SCT040 BKN065 17/07 A3014 RMK AO2 SLP205 T01670072
KBGR 171553Z 36013KT 10SM FEW030 SCT040 BKN060 16/08 A3014 RMK AO2 SLP205 T01610078
KBGR 171453Z 36012KT 10SM SCT025 BKN065 16/08 A3014 RMK AO2 SLP204 T01610083 51007
KBGR 171450Z 01012KT 10SM SCT025 BKN065 16/08 A3014 RMK AO2
KBGR 171409Z 02011G17KT 10SM BKN025 BKN040 BKN065 16/09 A3014 RMK AO2 T01560089
KBGR 171353Z 36010KT 10SM SCT027 SCT031 BKN065 14/08 A3014 RMK AO2 SLP205 T01440083
KBGR 171253Z 02014G20KT 10SM FEW019 SCT055 BKN070 14/09 A3012 RMK AO2 SLP198 T01390089
KBGR 171153Z 01012KT 10SM FEW014 BKN055 BKN070 14/11 A3010 RMK AO2 SLP191 T01390106 10139 20117 53022
KBGR 171053Z 01010KT 10SM BKN049 OVC060 13/11 A3008 RMK AO2 SLP184 T01330111
KBGR 170953Z 34008KT 10SM OVC041 13/11 A3005 RMK AO2 SLP176 T01330111
KBGR 170853Z 33006KT 10SM SCT043 OVC050 13/11 A3004 RMK AO2 SLP170 T01280111 53007
KBGR 170753Z 32004KT 10SM FEW040 BKN055 OVC085 12/11 A3002 RMK AO2 SLP165 T01220106
KBGR 170653Z 32004KT 10SM BKN075 12/10 A3002 RMK AO2 SLP163 T01170100
KBGR 170553Z 33007KT 10SM OVC042 14/11 A3002 RMK AO2 SLP162 T01390106 10150 20128 51006
KBGR 170453Z 31005KT 10SM SCT049 BKN060 13/11 A3002 RMK AO2 SLP163 T01280106 401830111
KBGR 170353Z 31006KT 10SM SCT027 BKN036 BKN060 14/11 A3000 RMK AO2 SLP158 T01390106
KBGR 170253Z 30006KT 10SM SCT043 OVC055 14/10 A3000 RMK AO2 SLP157 T01440100 51005
KBGR 170053Z 32009KT 10SM OVC060 15/10 A2999 RMK AO2 SLP155 T01500100
KBGR 162353Z 32010KT 10SM BKN055 OVC080 15/10 A2998 RMK AO2 SLP152 T01500100 10178 20150 52008
KBGR 162253Z 29010KT 10SM OVC049 16/10 A2997 RMK AO2 SLP149 T01560100
KBGR 162153Z 29009KT 10SM OVC050 16/10 A2997 RMK AO2 SLP147 T01610100
KBGR 162053Z 31004KT 10SM OVC048 17/10 A2996 RMK AO2 SLP144 T01670100 53002
KBGR 161953Z 33006KT 10SM OVC044 17/10 A2996 RMK AO2 SLP143 T01720100